• Join FlightAware (Why Join?)
  • Login
  • US Flag 
11:54PM EST


 

Airport Tracker/Info


-or-


 

Live Flight TrackerFlight Track Log ✈ JIA2258 ✈ 03-May-2012 ✈ KCLT - KSAV

Flight Track Log - Related Links

Times and Time Zones

All times are in EDT time to prevent confusion due to time zone crossing. See the JIA2258 flight status page for this flight to view local times or setup timezone preferences in your user account.

Time Position Orientation Groundspeed Altitude Reporting Facility
EDT Latitude Longitude Course Direction KTS MPH feet Rate Location/Type
09:25AM 35.1904 -80.9301 276° West  Level FlightAware Approximate
09:26AM 35.1908 -80.9356 175° South 160 184 1,600  Level Atlanta Center
09:27AM 35.1428 -80.9300 173° South 203 234 2,900 1,440 Climbing Atlanta Center
09:27AM 35.1008 -80.9239 171° South 250 288 3,700 2,460 Climbing Atlanta Center
09:28AM 35.0358 -80.9111 175° South 266 306 6,800 2,760 Climbing Atlanta Center
09:29AM 34.9625 -80.9036 179° South 266 306 9,300 2,520 Climbing Atlanta Center
09:30AM 34.8833 -80.9017 178° South 282 325 11,900 2,340 Climbing Atlanta Center
09:32AM 34.7114 -80.8947 177° South 310 357 16,700 2,160 Climbing Jacksonville Center
09:33AM 34.6236 -80.8892 178° South 310 357 18,700 2,040 Climbing Jacksonville Center
09:34AM 34.5214 -80.8842 192° South 326 375 20,800 1,620 Climbing Jacksonville Center
09:35AM 34.4239 -80.9092 192° South 339 390 22,000 600 Climbing Jacksonville Center
09:36AM 34.3261 -80.9339 191° South 356 410 22,000  Level Jacksonville Center
09:37AM 34.2306 -80.9561 187° South 362 417 22,000  Level Jacksonville Center
09:38AM 34.1244 -80.9711 186° South 369 425 22,000  Level Jacksonville Center
09:39AM 34.0244 -80.9833 186° South 374 430 22,000  Level Jacksonville Center
09:40AM 33.9222 -80.9956 186° South 369 425 22,000  Level Jacksonville Center
09:41AM 33.8244 -81.0075 185° South 369 425 22,000  Level Jacksonville Center
09:42AM 33.7244 -81.0172 187° South 369 425 22,000  Level Jacksonville Center
09:43AM 33.6222 -81.0319 185° South 369 425 22,000 -60 Level Jacksonville Center
09:44AM 33.5222 -81.0414 187° South 369 425 21,900 -600 Descending Jacksonville Center
09:45AM 33.4183 -81.0561 186° South 369 425 20,900 -1,020 Descending Jacksonville Center
09:46AM 33.3181 -81.0681 186° South 369 425 19,900 -1,020 Descending Jacksonville Center
09:47AM 33.2181 -81.0800 185° South 369 425 18,900 -960 Descending Jacksonville Center
09:48AM 33.1244 -81.0894 185° South 359 413 18,000 -900 Descending Jacksonville Center
09:49AM 33.0286 -81.0989 186° South 353 406 17,100 -1,200 Descending Jacksonville Center
09:50AM 32.9389 -81.1103 186° South 342 394 15,600 -1,620 Descending Jacksonville Center
09:51AM 32.8453 -81.1222 185° South 337 388 13,900 -1,740 Descending Jacksonville Center
09:52AM 32.7597 -81.1314 187° South 325 374 12,200 -1,740 Descending Jacksonville Center
09:53AM 32.6764 -81.1428 189° South 318 366 10,500 -1,560 Descending Jacksonville Center
09:54AM 32.5994 -81.1567 217° Southwest 290 334 9,100 240 Descending Jacksonville Center
09:55AM 32.5456 -81.2044 217° Southwest 268 308 11,000 -1,800 Climbing Jacksonville Center
09:56AM 32.4817 -81.2622 215° Southwest 268 308 5,500 -3,660 Descending Jacksonville Center
09:57AM 32.4219 -81.3125 214° Southwest 268 308 3,700 -1,740 Descending Jacksonville Center
09:58AM 32.3619 -81.3603 205° Southwest 268 308 2,100 -900 Descending Jacksonville Center
09:59AM 32.3100 -81.3883 205° Southwest 234 269 2,000 -120 Descending Jacksonville Center